This is the latest recevied weather packets stored in our database for station/object HJ3GNC-13. If no packets are shown the sender has not sent any weather packets the latest 10 day(s).
| Time | Temp. | Humidity | Pressure | Rain* | Wind** | Luminosity | Snow |
|---|---|---|---|---|---|---|---|
| 1777698517 | 13.33° C | 92% | 1019 hPa | 0 mm | - | - | - |
| 1777697574 | 13.33° C | 90% | 1018 hPa | 0 mm | - | - | - |
| 1777696631 | 13.33° C | 90% | 1019 hPa | 0 mm | - | - | - |
| 1777695686 | 13.33° C | 90% | 1019 hPa | 0 mm | - | - | - |
| 1777694744 | 13.33° C | 90% | 1019 hPa | 0 mm | - | - | - |
| 1777693800 | 13.33° C | 91% | 1019 hPa | 0 mm | - | - | - |
| 1777692859 | 14.44° C | 90% | 1019 hPa | 0 mm | - | - | - |
| 1777691916 | 14.44° C | 89% | 1018 hPa | 0 mm | - | - | - |
| 1777690972 | 14.44° C | 88% | 1018 hPa | 0 mm | - | - | - |
| 1777690028 | 14.44° C | 88% | 1018 hPa | 0 mm | - | - | - |
| 1777689078 | 15° C | 88% | 1018 hPa | 0 mm | - | - | - |
| 1777688126 | 15° C | 88% | 1018 hPa | 0 mm | - | - | - |
| 1777687170 | 16.11° C | 77% | 1018 hPa | 0 mm | - | - | - |
| 1777686227 | 16.11° C | 77% | 1017 hPa | 0 mm | - | - | - |
| 1777685282 | 16.11° C | 77% | 1016 hPa | 0 mm | - | - | - |
| 1777684336 | 16.11° C | 77% | 1016 hPa | 0 mm | - | - | - |
| 1777683380 | 17.22° C | 63% | 1016 hPa | 0 mm | - | - | - |
| 1777682430 | 17.22° C | 63% | 1016 hPa | 0 mm | - | - | - |
| 1777681487 | 17.22° C | 63% | 1015 hPa | 0 mm | - | - | - |
| 1777680540 | 17.78° C | 59% | 1015 hPa | 0 mm | - | - | - |
| 1777679576 | 17.78° C | 59% | 1015 hPa | 0 mm | - | - | - |
| 1777678634 | 17.78° C | 59% | 1015 hPa | 0 mm | - | - | - |
| 1777676687 | 20° C | 49% | 1013 hPa | 0 mm | - | - | - |
| 1777675738 | 20° C | 49% | 1013 hPa | 0 mm | - | - | - |
| 1777674754 | 18.89° C | 53% | 1013 hPa | 0 mm | - | - | - |
* Rain latest hour (hover to see other rain measurements)
** Current wind speed in m/s (hover to see current wind gust speed)